createdAt,value
2022-08-11T00:02:01.219Z,98766.28
2022-08-11T00:04:37.303Z,98765.16
2022-08-11T00:07:07.238Z,98760.19
2022-08-11T00:09:39.599Z,98768.81
2022-08-11T00:12:17.227Z,98766.84
2022-08-11T00:14:46.849Z,98760.19
2022-08-11T00:17:16.376Z,98766.16
2022-08-11T00:20:14.652Z,98759.47
2022-08-11T00:22:43.125Z,98757.53
2022-08-11T00:25:22.179Z,98763.25
2022-08-11T00:27:50.016Z,98760.88
2022-08-11T00:30:17.693Z,98758.22
2022-08-11T00:32:58.988Z,98757.81
2022-08-11T00:35:51.760Z,98753.34
2022-08-11T00:38:29.626Z,98753.50
2022-08-11T00:41:11.726Z,98755.59
2022-08-11T00:44:22.762Z,98756.44
2022-08-11T00:47:35.329Z,98755.03
2022-08-11T00:50:25.629Z,98758.53
2022-08-11T00:53:17.284Z,98749.88
2022-08-11T00:56:20.214Z,98757.13
2022-08-11T00:59:35.284Z,98752.53
2022-08-11T01:02:45.918Z,98757.56
2022-08-11T01:06:03.450Z,98752.78
2022-08-11T01:08:59.772Z,98752.50
2022-08-11T01:12:31.508Z,98767.44
2022-08-11T01:15:35.402Z,98763.97
2022-08-11T01:19:16.272Z,98758.38
2022-08-11T01:22:11.809Z,98757.38
2022-08-11T01:24:48.556Z,98756.13
2022-08-11T01:27:21.403Z,98758.06
2022-08-11T01:30:13.066Z,98753.88
2022-08-11T01:33:11.025Z,98748.75
2022-08-11T01:36:06.686Z,98747.03
2022-08-11T01:39:31.751Z,98753.19
2022-08-11T01:42:54.271Z,98752.50
2022-08-11T01:45:48.973Z,98749.53
2022-08-11T01:50:05.848Z,98747.88
2022-08-11T01:52:30.179Z,98745.22
2022-08-11T01:55:45.647Z,98748.72
2022-08-11T01:58:46.515Z,98745.09
2022-08-11T02:01:53.049Z,98743.16
2022-08-11T02:05:11.929Z,98744.69
2022-08-11T02:08:11.832Z,98744.00
2022-08-11T02:11:08.557Z,98739.16
2022-08-11T02:13:57.015Z,98739.97
2022-08-11T02:16:56.442Z,98741.66
2022-08-11T02:20:16.388Z,98742.19
2022-08-11T02:24:04.259Z,98735.38
2022-08-11T02:26:23.627Z,98739.72
2022-08-11T02:29:14.018Z,98737.34
2022-08-11T02:32:30.321Z,98742.50
2022-08-11T02:35:36.810Z,98738.47
2022-08-11T02:38:28.585Z,98742.19
2022-08-11T02:41:31.891Z,98737.44
2022-08-11T02:44:28.385Z,98737.16
2022-08-11T02:47:18.064Z,98743.41
2022-08-11T02:50:06.526Z,98743.53
2022-08-11T02:53:09.351Z,98742.56
2022-08-11T02:56:31.942Z,98742.69
2022-08-11T02:59:47.504Z,98740.56
2022-08-11T03:02:33.264Z,98737.91
2022-08-11T03:05:14.221Z,98742.75
2022-08-11T03:08:07.707Z,98745.13
2022-08-11T03:11:28.776Z,98736.22
2022-08-11T03:14:29.583Z,98732.31
2022-08-11T03:17:04.864Z,98740.22
2022-08-11T03:20:03.550Z,98737.59
2022-08-11T03:22:40.589Z,98744.25
2022-08-11T03:25:31.750Z,98740.44
2022-08-11T03:28:31.353Z,98751.66
2022-08-11T03:31:13.811Z,98750.97
2022-08-11T03:34:14.579Z,98747.84
2022-08-11T03:37:41.862Z,98750.22
2022-08-11T03:40:54.668Z,98756.03
2022-08-11T03:43:50.303Z,98749.50
2022-08-11T03:47:04.263Z,98746.44
2022-08-11T03:49:52.691Z,98748.38
2022-08-11T03:53:14.451Z,98746.56
2022-08-11T03:56:19.287Z,98751.44
2022-08-11T03:59:28.796Z,98750.22
2022-08-11T04:02:18.336Z,98744.88
2022-08-11T04:05:16.559Z,98746.16
2022-08-11T04:08:53.891Z,98741.34
2022-08-11T04:11:49.680Z,98739.44
2022-08-11T04:15:09.423Z,98740.97
2022-08-11T04:17:59.079Z,98746.00
2022-08-11T04:20:47.877Z,98743.88
2022-08-11T04:24:35.989Z,98741.25
2022-08-11T04:27:25.469Z,98745.16
2022-08-11T04:30:41.307Z,98748.94
2022-08-11T04:34:09.304Z,98740.38
2022-08-11T04:37:28.961Z,98755.00
2022-08-11T04:40:18.661Z,98742.91
2022-08-11T04:43:21.840Z,98738.59
2022-08-11T04:46:47.492Z,98740.53
2022-08-11T04:50:00.172Z,98744.47
2022-08-11T04:53:22.345Z,98738.88
2022-08-11T04:56:36.779Z,98744.28
2022-08-11T05:00:19.543Z,98742.50
2022-08-11T05:03:34.487Z,98747.53
2022-08-11T05:06:37.380Z,98752.13
2022-08-11T05:09:53.125Z,98746.88
2022-08-11T05:12:49.044Z,98742.03
2022-08-11T05:16:04.574Z,98743.16
2022-08-11T05:18:52.444Z,98742.59
2022-08-11T05:21:45.457Z,98742.31
2022-08-11T05:24:43.599Z,98743.25
2022-08-11T05:27:33.999Z,98744.84
2022-08-11T05:30:24.491Z,98739.25
2022-08-11T05:33:31.070Z,98749.44
2022-08-11T05:36:19.130Z,98747.63
2022-08-11T05:39:21.176Z,98741.66
2022-08-11T05:42:29.605Z,98747.88
2022-08-11T05:45:57.280Z,98752.25
2022-08-11T05:48:41.391Z,98756.00
2022-08-11T05:51:30.314Z,98750.81
2022-08-11T05:54:29.110Z,98751.94
2022-08-11T05:57:02.207Z,98755.69
2022-08-11T05:59:32.694Z,98753.88
2022-08-11T06:02:07.473Z,98750.81
2022-08-11T06:04:35.367Z,98755.25
2022-08-11T06:07:09.347Z,98759.44
2022-08-11T06:09:40.209Z,98762.88
2022-08-11T06:12:33.013Z,98768.03
2022-08-11T06:15:11.885Z,98763.28
2022-08-11T06:17:47.186Z,98770.91
2022-08-11T06:20:18.593Z,98769.94
2022-08-11T06:22:56.175Z,98776.44
2022-08-11T06:25:33.113Z,98779.41
2022-08-11T06:28:02.689Z,98775.81
2022-08-11T06:30:44.180Z,98774.75
2022-08-11T06:33:21.726Z,98783.44
2022-08-11T06:36:03.174Z,98784.13
2022-08-11T06:39:03.721Z,98786.25
2022-08-11T06:41:45.274Z,98783.22
2022-08-11T06:44:13.267Z,98784.66
2022-08-11T06:46:51.505Z,98786.59
2022-08-11T06:49:41.885Z,98784.19
2022-08-11T06:52:35.652Z,98782.16
2022-08-11T06:55:55.665Z,98787.53
2022-08-11T06:58:44.964Z,98781.63
2022-08-11T07:01:19.287Z,98784.47
2022-08-11T07:04:04.879Z,98783.00
2022-08-11T07:08:32.989Z,98781.00
2022-08-11T07:11:51.439Z,98772.34
2022-08-11T07:14:45.220Z,98775.50
2022-08-11T07:17:21.054Z,98774.03
2022-08-11T07:20:17.012Z,98771.38
2022-08-11T07:23:15.948Z,98772.91
2022-08-11T07:26:05.923Z,98775.09
2022-08-11T07:28:55.994Z,98774.75
2022-08-11T07:31:35.993Z,98775.94
2022-08-11T07:34:22.964Z,98779.63
2022-08-11T07:36:55.756Z,98780.09
2022-08-11T07:39:32.161Z,98772.91
2022-08-11T07:42:06.933Z,98776.75
2022-08-11T07:44:59.248Z,98774.72
2022-08-11T07:47:47.141Z,98780.34
2022-08-11T07:50:33.878Z,98774.97
2022-08-11T07:53:03.349Z,98777.03
2022-08-11T07:55:51.524Z,98779.06
2022-08-11T07:58:45.475Z,98782.03
2022-08-11T08:01:43.391Z,98777.91
2022-08-11T08:04:35.139Z,98783.91
2022-08-11T08:07:24.090Z,98781.38
2022-08-11T08:10:15.952Z,98790.09
2022-08-11T08:13:03.067Z,98778.50
2022-08-11T08:15:50.000Z,98782.84
2022-08-11T08:18:25.493Z,98775.13
2022-08-11T08:21:12.072Z,98774.13
2022-08-11T08:23:43.528Z,98774.63
2022-08-11T08:26:34.865Z,98771.19
2022-08-11T08:29:25.024Z,98770.59
2022-08-11T08:31:54.237Z,98765.38
2022-08-11T08:34:22.984Z,98764.53
2022-08-11T08:36:52.444Z,98756.03
2022-08-11T08:39:22.941Z,98762.03
2022-08-11T08:41:56.728Z,98760.88
2022-08-11T08:44:42.233Z,98760.88
2022-08-11T08:47:41.664Z,98760.41
2022-08-11T08:50:16.470Z,98762.06
2022-08-11T08:52:55.988Z,98756.06
2022-08-11T08:55:24.069Z,98750.94
2022-08-11T08:57:56.035Z,98758.78
2022-08-11T09:00:24.701Z,98744.34
2022-08-11T09:02:52.734Z,98757.19
2022-08-11T09:05:21.463Z,98754.91
2022-08-11T09:07:54.594Z,98751.41
2022-08-11T09:10:23.333Z,98752.59
2022-08-11T09:12:51.674Z,98747.69
2022-08-11T09:15:20.734Z,98746.41
2022-08-11T09:18:03.710Z,98752.91
2022-08-11T09:20:35.352Z,98744.25
2022-08-11T09:26:35.640Z,98754.19
2022-08-11T09:29:04.745Z,98756.31
2022-08-11T09:31:39.680Z,98754.78
2022-08-11T09:34:10.520Z,98749.50
2022-08-11T09:36:59.942Z,98742.31
2022-08-11T09:39:49.017Z,98751.03
2022-08-11T09:42:23.500Z,98746.13
2022-08-11T09:44:53.434Z,98742.19
2022-08-11T09:47:29.778Z,98752.44
2022-08-11T09:50:01.606Z,98750.97
2022-08-11T09:52:52.141Z,98745.78
2022-08-11T09:55:25.908Z,98737.22
2022-08-11T09:58:11.989Z,98733.06
2022-08-11T10:01:02.650Z,98737.41
2022-08-11T10:03:40.272Z,98734.81
2022-08-11T10:06:33.337Z,98733.94
2022-08-11T10:09:06.346Z,98731.50
2022-08-11T10:11:37.482Z,98734.44
2022-08-11T10:14:33.203Z,98728.44
2022-08-11T10:17:09.294Z,98741.63
2022-08-11T10:19:38.477Z,98738.25
2022-08-11T10:22:27.615Z,98745.69
2022-08-11T10:25:20.573Z,98747.75
2022-08-11T10:28:28.517Z,98727.03
2022-08-11T10:31:06.834Z,98718.38
2022-08-11T10:34:00.460Z,98714.09
2022-08-11T10:36:51.498Z,98716.38
2022-08-11T10:39:22.122Z,98704.72
2022-08-11T10:42:12.373Z,98718.06
2022-08-11T10:44:52.089Z,98724.94
2022-08-11T10:47:36.713Z,98708.84
2022-08-11T10:50:32.134Z,98684.88
2022-08-11T10:53:19.892Z,98698.16
2022-08-11T10:56:07.078Z,98688.91
2022-08-11T10:58:49.929Z,98696.56
2022-08-11T11:01:24.451Z,98687.41
2022-08-11T11:04:10.877Z,98683.63
2022-08-11T11:07:16.945Z,98675.50
2022-08-11T11:10:06.111Z,98671.69
2022-08-11T11:13:03.125Z,98673.59
2022-08-11T11:15:54.353Z,98672.25
2022-08-11T11:18:36.048Z,98655.75
2022-08-11T11:21:15.612Z,98653.63
2022-08-11T11:24:34.022Z,98644.16
2022-08-11T11:27:20.588Z,98642.16
2022-08-11T11:30:11.812Z,98641.44
2022-08-11T11:33:04.943Z,98633.91
2022-08-11T11:35:47.252Z,98620.94
2022-08-11T11:38:14.812Z,98617.75
2022-08-11T11:40:42.949Z,98613.66
2022-08-11T11:43:11.665Z,98621.53
2022-08-11T11:45:41.956Z,98615.88
2022-08-11T11:48:12.103Z,98619.19
2022-08-11T11:50:40.086Z,98607.78
2022-08-11T11:53:12.663Z,98602.56
2022-08-11T11:55:41.909Z,98601.25
2022-08-11T11:58:28.419Z,98594.00
2022-08-11T12:01:15.732Z,98588.16
2022-08-11T12:03:49.451Z,98579.47
2022-08-11T12:06:22.236Z,98585.06
2022-08-11T12:08:55.025Z,98589.19
2022-08-11T12:11:45.029Z,98597.94
2022-08-11T12:14:20.328Z,98596.53
2022-08-11T12:16:49.411Z,98588.63
2022-08-11T12:19:22.972Z,98590.75
2022-08-11T12:22:11.242Z,98584.38
2022-08-11T12:24:59.251Z,98583.59
2022-08-11T12:27:30.262Z,98580.78
2022-08-11T12:30:06.037Z,98571.97
2022-08-11T12:32:37.647Z,98576.69
2022-08-11T12:35:07.368Z,98574.78
2022-08-11T12:37:43.972Z,98577.00
2022-08-11T12:41:03.591Z,98570.63
2022-08-11T12:43:56.404Z,98570.34
2022-08-11T12:46:34.581Z,98557.81
2022-08-11T12:49:32.915Z,98553.72
2022-08-11T12:52:13.866Z,98552.53
2022-08-11T12:54:52.366Z,98537.78
2022-08-11T12:57:52.356Z,98541.28
2022-08-11T13:00:40.134Z,98539.09
2022-08-11T13:03:30.374Z,98545.28
2022-08-11T13:06:04.878Z,98539.78
2022-08-11T13:08:39.720Z,98531.72
2022-08-11T13:11:56.065Z,98528.94
2022-08-11T13:14:17.385Z,98531.34
2022-08-11T13:17:05.400Z,98519.97
2022-08-11T13:19:34.658Z,98521.69
2022-08-11T13:22:05.416Z,98524.16
2022-08-11T13:24:34.391Z,98518.13
2022-08-11T13:27:03.141Z,98513.47
2022-08-11T13:29:30.987Z,98515.22
2022-08-11T13:32:00.280Z,98507.34
2022-08-11T13:34:33.702Z,98499.25
2022-08-11T13:37:05.316Z,98508.88
2022-08-11T13:39:36.124Z,98500.06
2022-08-11T13:42:05.807Z,98501.72
2022-08-11T13:44:38.603Z,98500.47
2022-08-11T13:47:12.105Z,98500.19
2022-08-11T13:49:42.589Z,98500.97
2022-08-11T13:52:17.794Z,98505.00
2022-08-11T13:54:49.785Z,98503.56
2022-08-11T13:58:08.852Z,98505.31
2022-08-11T14:00:23.336Z,98503.88
2022-08-11T14:02:58.164Z,98516.53
2022-08-11T14:05:34.142Z,98546.66
2022-08-11T14:08:37.044Z,98556.31
2022-08-11T14:12:22.792Z,98563.41
2022-08-11T14:14:25.715Z,98582.38
2022-08-11T14:16:57.525Z,98584.78
2022-08-11T14:19:27.289Z,98575.59
2022-08-11T14:22:09.350Z,98595.38
2022-08-11T14:24:42.832Z,98591.22
2022-08-11T14:28:30.610Z,98596.00
2022-08-11T14:30:02.829Z,98595.84
2022-08-11T14:32:30.964Z,98588.75
2022-08-11T14:34:59.837Z,98598.88
2022-08-11T14:37:29.390Z,98611.34
2022-08-11T14:40:22.370Z,98617.00
2022-08-11T14:43:08.521Z,98628.50
2022-08-11T14:45:58.738Z,98639.31
2022-08-11T14:48:27.511Z,98638.97
2022-08-11T14:50:56.199Z,98635.66
2022-08-11T14:53:24.635Z,98636.97
2022-08-11T14:56:12.565Z,98628.50
2022-08-11T14:58:42.358Z,98629.13
2022-08-11T15:01:30.842Z,98627.78
2022-08-11T15:04:34.423Z,98627.31
2022-08-11T15:06:48.406Z,98626.94
2022-08-11T15:09:16.838Z,98618.56
2022-08-11T15:12:03.202Z,98611.19
2022-08-11T15:14:49.945Z,98602.16
2022-08-11T15:17:30.875Z,98601.84
2022-08-11T15:20:36.782Z,98603.13
2022-08-11T15:23:24.055Z,98607.75
2022-08-11T15:26:19.800Z,98609.69
2022-08-11T15:29:11.063Z,98610.47
2022-08-11T15:31:49.218Z,98624.91
2022-08-11T15:34:40.557Z,98621.66
2022-08-11T15:37:27.347Z,98608.84
2022-08-11T15:40:43.826Z,98610.38
2022-08-11T15:43:46.477Z,98623.56
2022-08-11T15:46:44.647Z,98607.03
2022-08-11T15:50:11.884Z,98598.38
2022-08-11T15:52:32.620Z,98589.19
2022-08-11T15:55:08.520Z,98585.88
2022-08-11T15:57:57.678Z,98588.84
2022-08-11T16:00:44.785Z,98589.13
2022-08-11T16:04:06.195Z,98590.69
2022-08-11T16:06:22.502Z,98590.88
2022-08-11T16:08:56.505Z,98591.38
2022-08-11T16:11:25.426Z,98586.38
2022-08-11T16:14:13.037Z,98584.13
2022-08-11T16:16:41.478Z,98583.78
2022-08-11T16:19:11.052Z,98583.31
2022-08-11T16:21:43.665Z,98590.50
2022-08-11T16:27:02.606Z,98591.44
2022-08-11T16:27:13.681Z,98593.28
2022-08-11T16:29:50.641Z,98593.81
2022-08-11T16:32:23.595Z,98597.03
2022-08-11T16:35:34.490Z,98588.34
2022-08-11T16:38:24.117Z,98589.63
2022-08-11T16:40:57.927Z,98583.13
2022-08-11T16:43:49.186Z,98579.44
2022-08-11T16:46:40.985Z,98575.19
2022-08-11T16:49:17.279Z,98574.50
2022-08-11T16:51:45.747Z,98570.53
2022-08-11T16:54:14.549Z,98573.03
2022-08-11T16:56:51.377Z,98567.78
2022-08-11T16:59:32.186Z,98570.44
2022-08-11T17:02:12.714Z,98564.66
2022-08-11T17:05:00.793Z,98565.53
2022-08-11T17:07:48.993Z,98559.91
2022-08-11T17:11:08.075Z,98564.63
2022-08-11T17:13:48.906Z,98565.44
2022-08-11T17:16:24.973Z,98559.78
2022-08-11T17:19:05.436Z,98561.81
2022-08-11T17:22:06.524Z,98563.22
2022-08-11T17:24:43.263Z,98560.09
2022-08-11T17:27:19.444Z,98569.06
2022-08-11T17:30:01.403Z,98563.25
2022-08-11T17:33:00.706Z,98558.94
2022-08-11T17:35:44.620Z,98557.28
2022-08-11T17:38:21.740Z,98560.78
2022-08-11T17:41:22.980Z,98555.81
2022-08-11T17:44:13.426Z,98567.81
2022-08-11T17:47:05.900Z,98555.47
2022-08-11T17:49:39.408Z,98559.13
2022-08-11T17:52:30.756Z,98561.78
2022-08-11T17:55:51.734Z,98560.28
2022-08-11T17:58:31.659Z,98553.09
2022-08-11T18:01:08.812Z,98549.91
2022-08-11T18:03:40.758Z,98551.22
2022-08-11T18:06:13.287Z,98549.69
2022-08-11T18:09:04.584Z,98546.16
2022-08-11T18:12:10.683Z,98540.97
2022-08-11T18:15:02.564Z,98544.78
2022-08-11T18:17:48.943Z,98544.75
2022-08-11T18:20:36.486Z,98551.88
2022-08-11T18:23:40.109Z,98545.72
2022-08-11T18:26:38.756Z,98555.28
2022-08-11T18:29:27.975Z,98546.81
2022-08-11T18:32:21.129Z,98555.41
2022-08-11T18:35:15.419Z,98564.66
2022-08-11T18:38:08.060Z,98567.25
2022-08-11T18:40:56.324Z,98566.88
2022-08-11T18:43:46.154Z,98567.25
2022-08-11T18:46:36.979Z,98568.31
2022-08-11T18:49:37.358Z,98565.16
2022-08-11T18:52:42.402Z,98585.00
2022-08-11T18:55:36.066Z,98581.81
2022-08-11T18:58:29.890Z,98583.63
2022-08-11T19:01:19.466Z,98591.91
2022-08-11T19:04:10.571Z,98589.34
2022-08-11T19:07:00.267Z,98600.22
2022-08-11T19:09:48.839Z,98587.13
2022-08-11T19:12:37.911Z,98589.25
2022-08-11T19:15:25.521Z,98585.25
2022-08-11T19:18:13.229Z,98589.19
2022-08-11T19:21:03.440Z,98593.56
2022-08-11T19:24:03.011Z,98587.06
2022-08-11T19:26:53.104Z,98584.72
2022-08-11T19:30:07.957Z,98585.03
2022-08-11T19:32:50.454Z,98584.63
2022-08-11T19:35:38.834Z,98582.44
2022-08-11T19:38:27.691Z,98580.91
2022-08-11T19:41:16.138Z,98593.03
2022-08-11T19:44:06.797Z,98587.66
2022-08-11T19:46:56.967Z,98581.50
2022-08-11T19:49:44.616Z,98589.03
2022-08-11T19:52:31.496Z,98576.69
2022-08-11T19:55:19.644Z,98582.03
2022-08-11T19:58:07.321Z,98580.78
2022-08-11T20:00:54.628Z,98581.66
2022-08-11T20:03:40.672Z,98577.94
2022-08-11T20:06:29.904Z,98574.06
2022-08-11T20:09:19.700Z,98586.75
2022-08-11T20:12:11.655Z,98578.28
2022-08-11T20:15:02.283Z,98582.59
2022-08-11T20:17:55.664Z,98582.31
2022-08-11T20:20:46.220Z,98590.44
2022-08-11T20:23:36.299Z,98577.25
2022-08-11T20:26:32.028Z,98570.56
2022-08-11T20:29:20.255Z,98567.19
2022-08-11T20:32:09.687Z,98569.16
2022-08-11T20:34:58.472Z,98567.78
2022-08-11T20:37:50.374Z,98572.50
2022-08-11T20:40:42.621Z,98571.84
2022-08-11T20:44:07.050Z,98569.47
2022-08-11T20:46:43.754Z,98576.44
2022-08-11T20:49:40.823Z,98564.47
2022-08-11T20:52:35.756Z,98564.75
2022-08-11T20:55:26.049Z,98566.72
2022-08-11T21:01:41.073Z,98575.22
2022-08-11T21:04:27.821Z,98577.56
2022-08-11T21:07:27.081Z,98575.06
2022-08-11T21:10:23.266Z,98579.25
2022-08-11T21:13:25.298Z,98575.06
2022-08-11T21:16:25.980Z,98582.03
2022-08-11T21:20:00.010Z,98581.75
2022-08-11T21:22:59.314Z,98582.31
2022-08-11T21:26:08.326Z,98573.13
2022-08-11T21:28:58.743Z,98573.00
2022-08-11T21:31:48.948Z,98579.53
2022-08-11T21:34:39.974Z,98585.06
2022-08-11T21:37:29.037Z,98577.81
2022-08-11T21:40:21.134Z,98584.78
2022-08-11T21:43:10.729Z,98585.31
2022-08-11T21:45:58.961Z,98580.88
2022-08-11T21:48:48.229Z,98582.00
2022-08-11T21:51:34.278Z,98584.19
2022-08-11T21:54:21.141Z,98580.31
2022-08-11T21:57:08.978Z,98587.25
2022-08-11T22:00:25.083Z,98585.00
2022-08-11T22:03:12.433Z,98574.88
2022-08-11T22:06:01.206Z,98581.81
2022-08-11T22:08:47.402Z,98578.75
2022-08-11T22:11:34.739Z,98586.16
2022-08-11T22:14:22.105Z,98587.28
2022-08-11T22:17:09.444Z,98595.19
2022-08-11T22:19:57.848Z,98599.06
2022-08-11T22:22:51.833Z,98593.94
2022-08-11T22:25:53.728Z,98596.72
2022-08-11T22:28:43.868Z,98595.63
2022-08-11T22:31:32.214Z,98596.69
2022-08-11T22:34:18.690Z,98598.28
2022-08-11T22:37:07.415Z,98591.28
2022-08-11T22:39:59.632Z,98586.44
2022-08-11T22:42:49.922Z,98596.81
2022-08-11T22:45:36.772Z,98599.31
2022-08-11T22:48:29.588Z,98590.38
2022-08-11T22:51:18.494Z,98593.47
2022-08-11T22:54:06.224Z,98593.84
2022-08-11T22:56:54.230Z,98597.75
2022-08-11T22:59:42.038Z,98593.84
2022-08-11T23:02:28.926Z,98587.31
2022-08-11T23:05:17.896Z,98588.00
2022-08-11T23:08:04.857Z,98592.69
2022-08-11T23:10:53.107Z,98596.56
2022-08-11T23:13:40.226Z,98593.25
2022-08-11T23:16:27.040Z,98583.13
2022-08-11T23:19:14.867Z,98577.69
2022-08-11T23:22:21.791Z,98572.97
2022-08-11T23:25:07.798Z,98571.03
2022-08-11T23:27:57.186Z,98563.34
2022-08-11T23:30:44.538Z,98570.72
2022-08-11T23:33:38.117Z,98567.25
2022-08-11T23:36:35.807Z,98566.84
2022-08-11T23:39:30.211Z,98572.69
2022-08-11T23:42:16.066Z,98566.16
2022-08-11T23:45:01.700Z,98571.84
2022-08-11T23:47:51.240Z,98571.28
2022-08-11T23:50:38.587Z,98567.66
2022-08-11T23:53:25.958Z,98559.59
2022-08-11T23:56:12.059Z,98563.22
2022-08-11T23:58:59.204Z,98560.13
